• Join FlightAware (Why Join?)
  • Login
  • US Flag 
11:21PM EST


 

Airport Tracker/Info


-or-


 

Live Flight TrackerFlight Track Log ✈ AAY807 ✈ 26-Jul-2014 ✈ KSGF - KPIE

Flight Track Log - Related Links

Times and Time Zones

All times are in EDT time to prevent confusion due to time zone crossing. See the AAY807 flight status page for this flight to view local times or setup timezone preferences in your user account.

Time Position Orientation Groundspeed Altitude Reporting Facility
EDT Latitude Longitude Course Direction KTS MPH feet Rate Location/Type
06:18PM 37.1217 -93.3292 126° Southeast 274 315 5,500  Level Kansas City Center
06:19PM 37.1064 -93.3111 137° Southeast 262 302 6,100 2,160 Climbing Kansas City Center
06:21PM 37.0008 -93.1489 129° Southeast 307 353 10,800 1,860 Climbing Kansas City Center
06:22PM 36.9703 -93.0336 108° East 341 392 12,000 1,020 Climbing Kansas City Center
06:23PM 36.9970 -92.7971 126° Southeast  Level FlightAware Approximate
06:23PM 36.9364 -92.9100 109° East 363 418 12,900  Level Kansas City Center
06:24PM 36.8950 -92.7581 109° East 379 436 14,000 960 Climbing Kansas City Center
06:25PM 36.8500 -92.6300 114° Southeast 407 468 15,000 420 Climbing Kansas City Center
06:26PM 36.7800 -92.5222 129° Southeast 406 467 15,000  Level Memphis Center
06:27PM 36.7106 -92.4131 128° Southeast 404 465 15,000 420 Level Memphis Center
06:28PM 36.6403 -92.3039 129° Southeast 404 465 15,900 1,320 Climbing Memphis Center
06:29PM 36.5533 -92.1708 129° Southeast 410 472 17,800 1,800 Climbing Memphis Center
06:30PM 36.4806 -92.0592 129° Southeast 418 481 19,600 1,740 Climbing Memphis Center
06:31PM 36.4039 -91.9433 129° Southeast 427 491 21,400 1,560 Climbing Memphis Center
06:32PM 36.3264 -91.8256 129° Southeast 434 499 22,800 1,320 Climbing Memphis Center
06:33PM 36.2481 -91.7033 128° Southeast 443 510 24,200 1,260 Climbing Memphis Center
06:34PM 36.1664 -91.5844 130° Southeast 447 514 25,500 1,200 Climbing Memphis Center
06:35PM 36.0789 -91.4642 132° Southeast 456 525 26,700 1,260 Climbing Memphis Center
06:36PM 35.9747 -91.3156 131° Southeast 469 540 28,200 1,140 Climbing Memphis Center
06:37PM 35.8878 -91.1911 131° Southeast 474 545 29,100 900 Climbing Memphis Center
06:38PM 35.7981 -91.0653 131° Southeast 480 552 30,100 840 Climbing Memphis Center
06:39PM 35.7069 -90.9369 131° Southeast 492 566 30,900 1,020 Climbing Memphis Center
06:40PM 35.6083 -90.8011 132° Southeast 497 572 32,200 1,080 Climbing Memphis Center
06:41PM 35.5175 -90.6733 131° Southeast 498 573 33,200 1,020 Climbing Memphis Center
06:42PM 35.4272 -90.5481 131° Southeast 497 572 34,300 960 Climbing Memphis Center
06:43PM 35.3347 -90.4217 132° Southeast 496 571 35,200 1,080 Climbing Memphis Center
06:44PM 35.2447 -90.2969 131° Southeast 496 571 36,600 840 Climbing Memphis Center
06:45PM 35.1558 -90.1753 132° Southeast 486 559 37,000 180 Climbing Memphis Center
06:46PM 35.0661 -90.0528 132° Southeast 485 558 37,000  Level Memphis Center
06:47PM 34.9608 -89.9072 131° Southeast 483 556 37,000  Level Memphis Center
06:48PM 34.8764 -89.7933 132° Southeast 484 557 37,000  Level Memphis Center
06:50PM 34.7867 -89.6681 131° Southeast 487 560 37,000  Level Memphis Center
06:51PM 34.6986 -89.5486 132° Southeast 488 562 37,000  Level Memphis Center
06:52PM 34.5922 -89.4047 132° Southeast 481 554 37,000  Level Memphis Center
06:53PM 34.5033 -89.2844 132° Southeast 481 554 37,000  Level Memphis Center
06:54PM 34.4139 -89.1633 132° Southeast 481 554 37,000  Level Memphis Center
06:55PM 34.3250 -89.0439 132° Southeast 481 554 37,000  Level Memphis Center
06:56PM 34.2375 -88.9233 131° Southeast 481 554 37,000  Level Memphis Center
06:57PM 34.1419 -88.7967 132° Southeast 480 552 37,000  Level Memphis Center
06:58PM 34.0542 -88.6800 132° Southeast 477 549 37,000  Level Memphis Center
06:59PM 33.9658 -88.5622 132° Southeast 477 549 37,000  Level Memphis Center
07:00PM 33.8775 -88.4458 132° Southeast 477 549 37,000  Level Memphis Center
07:01PM 33.7900 -88.3289 132° Southeast 475 547 37,000  Level Memphis Center
07:02PM 33.6831 -88.1897 133° Southeast 475 547 37,000  Level Memphis Center
07:03PM 33.5944 -88.0739 133° Southeast 475 547 37,000  Level Memphis Center
07:04PM 33.5069 -87.9583 132° Southeast 473 544 37,000  Level Memphis Center
07:05PM 33.4181 -87.8422 133° Southeast 473 544 37,000  Level Memphis Center
07:06PM 33.3294 -87.7272 133° Southeast 473 544 37,000  Level Memphis Center
07:07PM 33.2403 -87.6114 133° Southeast 473 544 37,000  Level Memphis Center
07:08PM 33.1514 -87.4975 133° Southeast 473 544 37,000  Level Memphis Center
07:09PM 33.0444 -87.3597 133° Southeast 473 544 37,000  Level Memphis Center
07:10PM 32.9561 -87.2483 133° Southeast 469 540 37,000  Level Memphis Center
07:11PM 32.8689 -87.1339 132° Southeast 468 539 37,000  Level Memphis Center
07:12PM 32.7803 -87.0222 133° Southeast 468 539 37,000  Level Memphis Center
07:13PM 32.6928 -86.9092 133° Southeast 467 537 37,000  Level Memphis Center
07:14PM 32.6039 -86.8003 134° Southeast 467 537 37,000  Level Memphis Center
07:15PM 32.4931 -86.6592 133° Southeast 461 531 37,000  Level Atlanta Center
07:16PM 32.4058 -86.5483 133° Southeast 456 525 37,000  Level Atlanta Center
07:17PM 32.3203 -86.4378 132° Southeast 456 525 37,000  Level Atlanta Center
07:18PM 32.2242 -86.3319 137° Southeast 470 541 37,000  Level Atlanta Center
07:19PM 32.1489 -86.2294 131° Southeast 464 534 37,000  Level Atlanta Center
07:22PM 31.9044 -85.9442 135° Southeast 493 567 37,000  Level Jacksonville Center
07:23PM 31.8150 -85.8361 134° Southeast 473 544 37,000  Level Jacksonville Center
07:24PM 31.7236 -85.7306 135° Southeast 468 539 37,000  Level Jacksonville Center
07:25PM 31.6339 -85.6256 135° Southeast 463 533 37,000  Level Jacksonville Center
07:26PM 31.5444 -85.5156 134° Southeast 463 533 37,000  Level Jacksonville Center
07:27PM 31.4525 -85.4108 136° Southeast 463 533 37,000  Level Jacksonville Center
07:28PM 31.3522 -85.3131 140° Southeast 463 533 37,000  Level Jacksonville Center
07:29PM 31.2494 -85.2231 143° Southeast 463 533 37,000  Level Jacksonville Center
07:30PM 31.1444 -85.1353 144° Southeast 463 533 37,000  Level Jacksonville Center
07:31PM 31.0417 -85.0433 143° Southeast 468 539 37,000  Level Jacksonville Center
07:32PM 30.9367 -84.9536 144° Southeast 475 547 37,000  Level Jacksonville Center
07:33PM 30.8317 -84.8619 143° Southeast 475 547 37,000 -60 Level Jacksonville Center
07:34PM 30.7286 -84.7753 144° Southeast 470 541 36,900 -60 Descending Jacksonville Center
07:35PM 30.6400 -84.6986 143° Southeast 470 541 36,900  Level Jacksonville Center
07:36PM 30.5347 -84.6097 144° Southeast 464 534 36,900  Level Jacksonville Center
07:37PM 30.4336 -84.5261 145° Southeast 464 534 36,900  Level Jacksonville Center
07:38PM 30.3322 -84.4378 143° Southeast 464 534 37,000  Climbing Jacksonville Center
07:39PM 30.2331 -84.3544 144° Southeast 459 528 37,000  Level Jacksonville Center
07:40PM 30.1297 -84.2686 144° Southeast 454 522 37,000  Level Jacksonville Center
07:41PM 30.0178 -84.1736 144° Southeast 454 522 37,000  Level Jacksonville Center
07:42PM 29.9144 -84.0908 145° Southeast 454 522 37,000  Level Jacksonville Center
07:43PM 29.8108 -84.0008 143° Southeast 454 522 37,000 -180 Level Jacksonville Center
07:44PM 29.7069 -83.9161 145° Southeast 449 517 36,700 -600 Descending Jacksonville Center
07:45PM 29.6053 -83.8336 145° Southeast 449 517 35,800 -1,140 Descending Jacksonville Center
07:46PM 29.5036 -83.7469 143° Southeast 449 517 34,500 -2,280 Descending Jacksonville Center
07:47PM 29.4000 -83.6603 144° Southeast 454 522 31,300 -2,880 Descending Jacksonville Center
07:48PM 29.2939 -83.5736 145° Southeast 459 528 28,800 -2,400 Descending Jacksonville Center
07:49PM 29.1900 -83.4897 145° Southeast 459 528 26,500 -1,920 Descending Jacksonville Center
07:50PM 29.0839 -83.4225 151° Southeast 453 521 25,000 -900 Descending Jacksonville Center
07:51PM 28.9797 -83.3603 152° Southeast 436 502 24,700 -1,860 Descending Jacksonville Center
07:52PM 28.8714 -83.2886 150° Southeast 436 502 21,300 -3,000 Descending Jacksonville Center
07:53PM 28.7672 -83.2242 152° Southeast 436 502 18,700 -2,400 Descending Jacksonville Center
07:54PM 28.6650 -83.1575 150° Southeast 436 502 16,600 -2,100 Descending Jacksonville Center
07:55PM 28.5500 -83.0833 150° Southeast 383 441 14,000 -1,500 Descending Tampa TRACON
07:56PM 28.4500 -83.0333 156° South 350 403 13,300 -720 Descending Tampa TRACON
07:57PM 28.4000 -82.9833 139° Southeast 308 354 12,800 -1,020 Descending Tampa TRACON
07:57PM 28.3522 -82.9756 172° South 313 360 12,000 -1,440 Descending Miami Center
07:58PM 28.2706 -82.9503 165° South 308 354 10,600 -1,500 Descending Miami Center
07:59PM 28.1911 -82.9256 165° South 301 346 9,000 -1,620 Descending Miami Center
08:00PM 28.1122 -82.9006 164° South 299 344 7,400 -1,620 Descending Miami Center
08:01PM 28.0356 -82.8772 165° South 290 334 5,800 -1,680 Descending Miami Center
08:02PM 27.9833 -82.8667 170° South 282 325 4,900 -1,680 Descending Tampa TRACON
08:03PM 27.9167 -82.8333 156° South 275 316 3,300 -1,440 Descending Tampa TRACON
08:04PM 27.8667 -82.8000 149° Southeast 243 280 2,200 -780 Descending Tampa TRACON
08:05PM 27.8167 -82.7667 149° Southeast 213 245 2,000 -360 Descending Tampa TRACON
08:06PM 27.8333 -82.7000 74° East 166 191 1,500 -600 Descending Tampa TRACON
08:07PM 27.8500 -82.6833 41° Northeast 139 160 800 -540 Descending Tampa TRACON
08:09PM 27.9256 -82.6911 355° North 152 175 100 -420 Descending Miami Center